Avery Island, LA

14:32 CST le 09 février 2016 (GMT -0600)
Acadiana Regional | | Change Station
CLOSE
Current Station
Aéroport
Location: New Iberia,
Altitude: 23 ft
Stations météo à proximité
Avis météorologiques actifs: Wind Advisory

Alt. 23 ft 30.04 °N, 91.88 °W | Updated 39 minutes ago

Ciel dégagé
Ciel dégagé
57 ° F
Paraît 57 ° F
N
21
Vent Variable Vent de ONO
Gusts 30 mph

Aujourd'hui
Haut(e) -- | Bas -- ° F
--% Risque de précip.
Hier
Haut(e) -- | Bas -- ° F
Precip. -- pouce
Pression 30.15 pouce
Visibilité 10.0 Miles terrestres
Nuages Ciel dégagé
Point de rosée 19 ° F
Humidité 23%
Précipitations 0.00 pouce
Profondeur de la couche neigeuse Non disponible.
6:52 AM 5:51 PM
Nouvelle lune, 2% visible
METAR KARA 091953Z 30018G26KT 10SM CLR 14/M07 A3015 RMK AO2 PK WND 32026/1952 SLP209 T01391072
Pression 30.15 pouce
Visibilité 10.0 Miles terrestres
Nuages Ciel dégagé
Point de rosée 19 ° F
Humidité 23%
Précipitations 0.00 pouce
Profondeur de la couche neigeuse Non disponible.
6:52 AM 5:51 PM
Nouvelle lune, 2% visible
METAR KARA 091953Z 30018G26KT 10SM CLR 14/M07 A3015 RMK AO2 PK WND 32026/1952 SLP209 T01391072

10-Day Weather Forecast

Almanac

Astronomie

Feb. 09, 2016 Lever Coucher
Temps réel
Crépuscule civil
Crépuscule nautique
Crépuscule astronomique
Lune
Durée de lumière visible
Longueur du jour
Tomorrow will be .
, % of the Moon is Illuminated

Extrêmes aujourd'hui

State Highs State Lows

Community

WunderPhotos

Upload Photos

1,891,679 Photos téléchargées !

WunderBlog® & News

Nearby

Qualité de l'air

  Qualité de l'air Indice de la qualité de l'air Polluant
Not available.

Épaisseur de neige

Station Depth Altitude

Activité sismique

Ville Distance Mag. Time & Date
Minimum magnitude displayed is 2.5.

Températures des eaux côtières

Lieu Température

Stations

Stations météo à proximité

Emplacement de la station Température Refroidissement éolien Point de rosée Humidité Vent Precip. Alt. Mise à jour Type
                   

Watches & Warnings

Wind Advisory
Issued: 10:38 CST Feb. 9, 2016 – National Weather Service

... Wind Advisory remains in effect until 6 PM CST this evening...

* timing... from 9 am through 6 PM

* winds... sustained 15 to 25 mph... with gusts up to 30 mph.

* Impacts... vehicles and high profile vehicles should use
caution as sudden gusts can cause loss of control. Loose lawn
furniture or trash cans may be blow around.

Precautionary/preparedness actions...

A Wind Advisory means that winds of 20 mph are expected. Winds
this strong can make driving difficult... especially for high
profile vehicles. Use extra caution.



13